Time;durP1;ratioP1;P1;durP2;ratioP2;P2;SDS_P1;SDS_P2;PMS_P1;PMS_P2;Temp;Humidity;BMP_temperature;BMP_pressure;BME280_temperature;BME280_humidity;BME280_pressure;Samples;Min_cycle;Max_cycle;Signal;HPM_P1;HPM_P2
2023/07/21 00:01:28;;;;;;;53.53;39.70;;;;;;;29.63;100.00;97637.22;4841799;29;19936;-65
2023/07/21 00:03:57;;;;;;;53.28;40.63;;;;;;;29.66;100.00;97641.19;4842539;29;20136;-65
2023/07/21 00:06:26;;;;;;;54.85;41.25;;;;;;;29.68;100.00;97649.84;4841230;29;20059;-65
2023/07/21 00:08:56;;;;;;;52.22;41.83;;;;;;;29.68;100.00;97636.22;4843663;29;20049;-65
2023/07/21 00:11:25;;;;;;;53.47;41.35;;;;;;;29.69;100.00;97644.06;4842021;29;20641;-65
2023/07/21 00:13:55;;;;;;;54.58;40.50;;;;;;;29.71;100.00;97640.97;4842489;29;20614;-64
2023/07/21 00:16:27;;;;;;;50.72;39.38;;;;;;;29.66;100.00;97630.28;4840642;29;20056;-65
2023/07/21 00:18:57;;;;;;;53.10;40.47;;;;;;;29.65;100.00;97625.97;4823934;29;20053;-65
2023/07/21 00:21:26;;;;;;;47.80;38.83;;;;;;;29.66;100.00;97636.53;4840909;29;20161;-65
2023/07/21 00:23:56;;;;;;;51.25;39.53;;;;;;;29.68;100.00;97634.28;4843051;29;20057;-65
2023/07/21 00:26:25;;;;;;;49.47;39.63;;;;;;;29.71;100.00;97638.25;4840782;29;20107;-65
2023/07/21 00:28:55;;;;;;;50.72;40.58;;;;;;;29.71;100.00;97647.22;4841926;29;20129;-65
2023/07/21 00:31:24;;;;;;;48.50;39.60;;;;;;;29.70;100.00;97653.00;4840621;29;20057;-65
2023/07/21 00:33:54;;;;;;;49.42;38.55;;;;;;;29.70;100.00;97647.56;4845095;29;20053;-65
2023/07/21 00:36:24;;;;;;;48.03;39.30;;;;;;;29.68;100.00;97642.47;4827577;29;20144;-65
2023/07/21 00:38:56;;;;;;;53.63;39.38;;;;;;;29.69;100.00;97633.13;4844680;29;20049;-65
2023/07/21 00:41:26;;;;;;;49.40;39.15;;;;;;;29.72;100.00;97639.84;4839259;29;20046;-65
2023/07/21 00:43:56;;;;;;;54.25;40.55;;;;;;;29.76;100.00;97638.81;4840263;29;20049;-65
2023/07/21 00:46:26;;;;;;;50.88;40.25;;;;;;;29.77;100.00;97639.59;4844967;29;20057;-65
2023/07/21 00:48:57;;;;;;;56.72;40.85;;;;;;;29.79;100.00;97629.13;4841562;29;20061;-65
2023/07/21 00:51:26;;;;;;;48.83;39.90;;;;;;;29.78;100.00;97633.00;4840655;29;20050;-65
2023/07/21 00:53:57;;;;;;;50.22;38.72;;;;;;;29.80;100.00;97626.06;4839062;29;20677;-66
2023/07/21 00:56:27;;;;;;;51.70;39.53;;;;;;;29.81;100.00;97626.84;4825591;29;20130;-65
2023/07/21 00:58:59;;;;;;;45.25;36.85;;;;;;;29.81;100.00;97624.13;4839835;29;20132;-65
2023/07/21 01:01:29;;;;;;;44.35;36.60;;;;;;;29.83;100.00;97635.47;4837495;29;20074;-65
2023/07/21 01:03:59;;;;;;;49.05;37.80;;;;;;;29.84;100.00;97637.09;4846301;29;20057;-65
2023/07/21 01:06:30;;;;;;;43.72;36.40;;;;;;;29.89;100.00;97636.88;4839135;29;20057;-64
2023/07/21 01:09:04;;;;;;;46.40;36.10;;;;;;;30.01;100.00;97631.38;4842933;29;20058;-64
2023/07/21 01:11:35;;;;;;;44.30;36.38;;;;;;;30.04;100.00;97638.09;4831786;29;20289;-64
2023/07/21 01:14:07;;;;;;;31.98;28.20;;;;;;;29.99;100.00;97630.16;4838109;29;20058;-64
2023/07/21 01:16:43;;;;;;;34.28;28.40;;;;;;;29.97;100.00;97632.41;4820723;29;20054;-64
2023/07/21 01:19:14;;;;;;;37.13;30.05;;;;;;;30.03;100.00;97633.78;4821614;29;20134;-65
2023/07/21 01:21:48;;;;;;;40.03;30.58;;;;;;;30.11;100.00;97638.31;4821585;29;20141;-65
2023/07/21 01:24:24;;;;;;;47.80;32.60;;;;;;;30.19;100.00;97631.91;4822419;29;20058;-65
2023/07/21 01:26:56;;;;;;;36.10;30.10;;;;;;;30.24;100.00;97643.38;4835146;29;20038;-65
2023/07/21 01:29:28;;;;;;;33.13;29.15;;;;;;;30.32;100.00;97636.97;4819301;29;20115;-64
2023/07/21 01:31:59;;;;;;;37.47;31.00;;;;;;;30.38;100.00;97634.81;4837074;29;20561;-65
2023/07/21 01:34:32;;;;;;;40.05;32.03;;;;;;;30.42;100.00;97645.84;4831695;29;20042;-65
2023/07/21 01:37:03;;;;;;;39.08;31.75;;;;;;;30.46;100.00;97655.75;4819181;29;21078;-67
2023/07/21 01:39:35;;;;;;;36.70;29.80;;;;;;;30.49;100.00;97655.06;4837781;29;20136;-66
2023/07/21 01:42:06;;;;;;;33.05;28.77;;;;;;;30.56;100.00;97660.72;4841695;29;20058;-66
2023/07/21 01:44:37;;;;;;;33.80;26.73;;;;;;;30.68;100.00;97668.06;4831190;29;20049;-66
2023/07/21 01:47:07;;;;;;;27.88;24.83;;;;;;;30.81;100.00;97668.81;4823434;29;20038;-67
2023/07/21 01:49:37;;;;;;;25.88;23.13;;;;;;;30.91;100.00;97663.63;4842102;29;20060;-66
2023/07/21 01:52:06;;;;;;;30.23;25.15;;;;;;;31.02;100.00;97662.00;4826414;29;20054;-65
2023/07/21 01:55:17;;;;;;;26.40;23.63;;;;;;;31.09;100.00;97659.44;4827685;29;20062;-65
2023/07/21 01:57:52;;;;;;;28.33;25.35;;;;;;;31.20;100.00;97676.16;4804566;29;20057;-65
2023/07/21 02:00:22;;;;;;;26.42;23.83;;;;;;;31.35;100.00;97680.03;4826265;29;25725;-67
2023/07/21 02:02:52;;;;;;;28.17;25.38;;;;;;;31.28;100.00;97685.31;4838645;29;20053;-65
2023/07/21 02:05:25;;;;;;;30.70;27.20;;;;;;;31.20;100.00;97674.19;4833172;29;20049;-65
2023/07/21 02:07:56;;;;;;;31.95;27.52;;;;;;;31.10;100.00;97671.19;4827528;29;20074;-65
2023/07/21 02:10:25;;;;;;;30.67;27.50;;;;;;;31.19;100.00;97680.03;4826625;29;20374;-65
2023/07/21 02:13:06;;;;;;;30.92;27.60;;;;;;;31.35;100.00;97672.59;4823727;29;20045;-65
2023/07/21 02:15:35;;;;;;;31.48;28.05;;;;;;;31.54;100.00;97660.94;4833726;29;20042;-64
2023/07/21 02:18:05;;;;;;;31.90;27.90;;;;;;;31.81;100.00;97668.28;4823572;29;20070;-65
2023/07/21 02:20:34;;;;;;;32.33;28.90;;;;;;;31.95;100.00;97681.50;4821406;29;20054;-64
2023/07/21 02:23:05;;;;;;;29.42;26.50;;;;;;;32.27;100.00;97702.19;4824693;29;20110;-65
2023/07/21 02:25:38;;;;;;;31.25;27.45;;;;;;;32.43;100.00;97707.63;4838077;29;20065;-65
2023/07/21 02:28:08;;;;;;;30.40;27.27;;;;;;;32.52;100.00;97709.03;4818519;29;20118;-65
2023/07/21 02:30:37;;;;;;;30.02;27.02;;;;;;;32.64;100.00;97710.06;4826302;29;20046;-65
2023/07/21 02:33:06;;;;;;;31.73;28.50;;;;;;;32.62;100.00;97707.66;4825219;29;20050;-65
2023/07/21 02:35:35;;;;;;;31.67;28.30;;;;;;;32.46;100.00;97709.66;4823468;29;20057;-65
2023/07/21 02:38:05;;;;;;;33.40;29.48;;;;;;;32.43;100.00;97713.91;4824997;29;20738;-65
2023/07/21 02:40:34;;;;;;;34.78;30.67;;;;;;;32.47;100.00;97716.72;4824194;29;20490;-65
2023/07/21 02:43:04;;;;;;;33.22;29.15;;;;;;;32.46;100.00;97723.34;4824575;29;20565;-65
2023/07/21 02:45:33;;;;;;;34.00;30.30;;;;;;;32.38;100.00;97721.63;4822138;29;20832;-65
2023/07/21 02:48:03;;;;;;;33.08;29.63;;;;;;;32.35;100.00;97725.09;4823436;29;20061;-65
2023/07/21 02:50:34;;;;;;;32.80;29.30;;;;;;;32.32;100.00;97725.78;4823556;29;20046;-65
2023/07/21 02:53:04;;;;;;;37.58;28.52;;;;;;;32.38;100.00;97725.16;4839269;29;20064;-65
2023/07/21 02:55:34;;;;;;;30.75;24.92;;;;;;;32.34;100.00;97718.81;4821017;29;20054;-65
2023/07/21 02:58:03;;;;;;;25.42;22.27;;;;;;;32.22;100.00;97715.41;4822327;29;20081;-65
2023/07/21 03:00:36;;;;;;;23.90;19.38;;;;;;;32.13;99.34;97706.59;4821956;29;20126;-64
2023/07/21 03:03:17;;;;;;;21.63;19.35;;;;;;;32.21;99.98;97706.38;4820140;29;20082;-64
2023/07/21 03:05:53;;;;;;;21.48;19.15;;;;;;;32.14;98.17;97708.16;4819732;29;20054;-64
2023/07/21 03:08:32;;;;;;;20.65;18.65;;;;;;;32.26;99.10;97722.56;4824533;29;20057;-65
2023/07/21 03:11:07;;;;;;;23.10;17.48;;;;;;;32.31;99.89;97713.25;4839040;29;20050;-66
2023/07/21 03:13:46;;;;;;;20.83;18.63;;;;;;;32.23;99.51;97714.22;4824202;29;20118;-65
2023/07/21 03:16:16;;;;;;;23.63;19.33;;;;;;;32.29;100.00;97712.81;4836881;29;20047;-65
2023/07/21 03:18:52;;;;;;;21.13;18.63;;;;;;;32.36;100.00;97710.22;4835973;29;20074;-65
2023/07/21 03:21:21;;;;;;;20.75;17.55;;;;;;;32.22;99.76;97710.69;4823563;29;20055;-64
2023/07/21 03:23:51;;;;;;;19.33;17.42;;;;;;;32.23;100.00;97723.25;4821443;29;20054;-65
2023/07/21 03:26:27;;;;;;;20.83;18.63;;;;;;;32.28;99.59;97730.41;4837552;29;20152;-65
2023/07/21 03:28:57;;;;;;;19.35;17.33;;;;;;;32.34;99.85;97723.50;4838373;29;20042;-65
2023/07/21 03:31:28;;;;;;;20.73;18.48;;;;;;;32.36;100.00;97730.19;4839194;29;20085;-64
2023/07/21 03:34:02;;;;;;;19.30;17.25;;;;;;;32.20;97.17;97736.88;4837032;29;20053;-65
2023/07/21 03:36:33;;;;;;;18.50;16.30;;;;;;;32.30;99.47;97745.34;4836488;29;20058;-65
2023/07/21 03:39:04;;;;;;;17.17;15.48;;;;;;;32.34;99.96;97745.44;4831971;29;20050;-65
2023/07/21 03:41:33;;;;;;;16.33;14.70;;;;;;;32.28;96.58;97755.06;4836009;29;20129;-66
2023/07/21 03:44:04;;;;;;;19.77;15.35;;;;;;;32.45;98.14;97752.72;4833016;29;20065;-66
2023/07/21 03:46:35;;;;;;;18.70;16.88;;;;;;;32.47;97.33;97763.34;4838516;29;20459;-66
2023/07/21 03:49:12;;;;;;;18.30;16.50;;;;;;;32.41;95.83;97765.56;4833482;29;20056;-66
2023/07/21 03:51:49;;;;;;;18.48;15.95;;;;;;;32.54;100.00;97772.50;4834442;29;20042;-66
2023/07/21 03:54:19;;;;;;;21.35;16.23;;;;;;;32.48;100.00;97768.47;4838982;29;20046;-66
2023/07/21 03:56:48;;;;;;;19.52;15.40;;;;;;;32.51;100.00;97777.91;4825848;29;20050;-65
2023/07/21 03:59:18;;;;;;;17.90;15.77;;;;;;;32.44;100.00;97789.50;4836896;29;20053;-66
2023/07/21 04:01:47;;;;;;;19.75;15.45;;;;;;;32.45;98.35;97782.88;4820645;29;20042;-65
2023/07/21 04:04:16;;;;;;;17.08;14.82;;;;;;;32.46;100.00;97789.97;4822464;29;20042;-65
2023/07/21 04:06:47;;;;;;;18.52;16.63;;;;;;;32.40;100.00;97794.13;4830886;29;20344;-65
2023/07/21 04:09:16;;;;;;;21.70;17.50;;;;;;;32.41;100.00;97792.19;4836520;29;20060;-66
2023/07/21 04:11:45;;;;;;;21.95;17.45;;;;;;;32.48;100.00;97784.94;4820964;29;20081;-65
2023/07/21 04:14:15;;;;;;;22.40;16.00;;;;;;;32.48;100.00;97790.41;4837311;29;20359;-66
2023/07/21 04:16:45;;;;;;;29.13;17.55;;;;;;;32.48;100.00;97786.88;4836200;29;20094;-65
2023/07/21 04:19:15;;;;;;;22.45;19.27;;;;;;;32.39;100.00;97798.03;4828504;29;20050;-66
2023/07/21 04:21:45;;;;;;;22.75;20.27;;;;;;;32.21;100.00;97810.53;4837268;29;20535;-65
2023/07/21 04:24:14;;;;;;;24.30;17.95;;;;;;;31.65;100.00;97832.56;4823107;29;20050;-64
2023/07/21 04:26:44;;;;;;;16.25;12.43;;;;;;;30.74;100.00;97836.19;4837472;29;20077;-65
2023/07/21 04:29:13;;;;;;;15.77;9.50;;;;;;;30.43;100.00;97844.19;4823769;29;20051;-65
2023/07/21 04:32:01;;;;;;;15.32;8.43;;;;;;;30.11;100.00;97854.09;4836254;29;20061;-71
2023/07/21 04:34:36;;;;;;;12.88;8.50;;;;;;;29.96;100.00;97861.03;4824074;29;20045;-65
2023/07/21 04:37:09;;;;;;;12.15;8.82;;;;;;;29.84;100.00;97869.16;4831949;29;20053;-65
2023/07/21 04:39:40;;;;;;;17.80;8.75;;;;;;;29.70;100.00;97864.00;4836836;29;20058;-65
2023/07/21 04:42:11;;;;;;;14.25;8.82;;;;;;;29.76;100.00;97864.59;4835930;29;20061;-66
2023/07/21 04:44:43;;;;;;;12.30;7.65;;;;;;;29.63;100.00;97863.78;4835379;29;20593;-65
2023/07/21 04:47:13;;;;;;;10.00;7.43;;;;;;;29.49;100.00;97867.91;4832621;29;20782;-64
2023/07/21 04:50:21;;;;;;;10.75;7.35;;;;;;;29.56;100.00;97876.38;4830799;29;20081;-65
2023/07/21 04:53:07;;;;;;;11.63;7.47;;;;;;;29.40;100.00;97868.00;4808705;29;20103;-64
2023/07/21 04:55:38;;;;;;;9.98;6.88;;;;;;;29.44;100.00;97880.66;4819634;29;20174;-63
2023/07/21 04:58:09;;;;;;;11.23;6.88;;;;;;;29.40;100.00;97896.09;4812125;29;20046;-64
2023/07/21 05:00:40;;;;;;;10.25;6.15;;;;;;;29.22;100.00;97902.00;4817148;29;20314;-64
2023/07/21 05:03:09;;;;;;;9.85;5.88;;;;;;;29.13;100.00;97888.44;4831433;29;20053;-66
2023/07/21 05:05:39;;;;;;;7.90;5.68;;;;;;;29.15;100.00;97888.09;4818880;29;20130;-64
2023/07/21 05:08:09;;;;;;;8.73;5.82;;;;;;;29.15;100.00;97877.19;4835451;29;20050;-65
2023/07/21 05:10:38;;;;;;;13.90;6.40;;;;;;;29.23;100.00;97896.22;4838132;29;20048;-65
2023/07/21 05:13:16;;;;;;;10.63;5.75;;;;;;;29.17;100.00;97889.34;4836974;29;20045;-65
2023/07/21 05:15:54;;;;;;;9.07;5.00;;;;;;;29.09;100.00;97890.22;4832190;29;20512;-65
2023/07/21 05:18:43;;;;;;;7.55;4.95;;;;;;;29.00;100.00;97890.28;4822818;29;20094;-65
2023/07/21 05:21:33;;;;;;;8.43;5.47;;;;;;;28.92;100.00;97884.91;4813440;29;20049;-65
2023/07/21 05:24:15;;;;;;;9.77;6.53;;;;;;;28.94;100.00;97882.66;4843456;29;20053;-65
2023/07/21 05:26:46;;;;;;;14.45;7.32;;;;;;;28.90;100.00;97873.56;4843554;29;20060;-65
2023/07/21 05:29:34;;;;;;;12.20;8.48;;;;;;;28.86;100.00;97878.84;4840103;29;20139;-65
2023/07/21 05:32:05;;;;;;;13.90;7.80;;;;;;;28.94;100.00;97882.66;4832707;29;20053;-64
2023/07/21 05:34:35;;;;;;;16.25;8.85;;;;;;;29.01;100.00;97882.91;4823401;29;20053;-66
2023/07/21 05:37:07;;;;;;;14.00;7.85;;;;;;;29.02;100.00;97884.50;4818715;29;20054;-66
2023/07/21 05:39:37;;;;;;;11.77;7.72;;;;;;;29.22;100.00;97882.91;4831613;29;20046;-64
2023/07/21 05:42:10;;;;;;;8.63;6.75;;;;;;;29.19;100.00;97889.03;4832954;29;20344;-63
2023/07/21 05:44:45;;;;;;;12.48;6.63;;;;;;;29.25;100.00;97899.41;4818857;29;20041;-64
2023/07/21 05:47:16;;;;;;;12.07;6.60;;;;;;;29.27;100.00;97897.13;4803369;29;20133;-63
2023/07/21 05:49:51;;;;;;;10.43;6.45;;;;;;;29.27;100.00;97905.31;4834867;29;20050;-64
2023/07/21 05:52:22;;;;;;;9.30;6.75;;;;;;;29.32;100.00;97909.81;4833306;29;20053;-63
2023/07/21 05:54:53;;;;;;;7.97;6.95;;;;;;;29.32;100.00;97896.97;4822683;29;20050;-65
2023/07/21 05:57:27;;;;;;;9.27;6.78;;;;;;;29.45;100.00;97895.09;4831445;29;20498;-65
2023/07/21 05:59:58;;;;;;;13.40;7.30;;;;;;;29.53;100.00;97887.94;4819238;29;20146;-65
2023/07/21 06:02:28;;;;;;;10.00;6.90;;;;;;;29.62;100.00;97880.47;4841958;29;20046;-65
2023/07/21 06:05:00;;;;;;;10.20;8.18;;;;;;;29.62;100.00;97869.56;4838576;29;20550;-66
2023/07/21 06:07:36;;;;;;;10.25;7.28;;;;;;;29.66;100.00;97862.28;4821933;29;20061;-66
2023/07/21 06:10:13;;;;;;;10.10;6.60;;;;;;;29.63;100.00;97860.25;4839046;29;20050;-66
2023/07/21 06:13:01;;;;;;;10.18;6.97;;;;;;;29.61;100.00;97852.38;4833656;29;20065;-68
2023/07/21 06:15:37;;;;;;;10.60;7.13;;;;;;;29.55;100.00;97859.19;4836755;29;20479;-68
2023/07/21 06:18:37;;;;;;;8.00;6.13;;;;;;;29.75;100.00;97863.00;4833607;29;20375;-66
2023/07/21 06:21:06;;;;;;;;;;;;;;;29.84;100.00;97872.69;4803654;29;20149;-67
2023/07/21 06:23:36;;;;;;;7.18;5.32;;;;;;;29.80;100.00;97882.69;4832001;29;20491;-67
2023/07/21 06:26:05;;;;;;;7.63;5.53;;;;;;;29.74;100.00;97880.53;4839728;29;20050;-66
2023/07/21 06:28:42;;;;;;;9.30;5.97;;;;;;;29.74;100.00;97888.72;4840580;29;20055;-64
2023/07/21 06:31:16;;;;;;;8.20;5.72;;;;;;;29.78;100.00;97881.44;4835996;29;20053;-65
2023/07/21 06:33:51;;;;;;;8.85;6.68;;;;;;;29.89;100.00;97886.16;4834558;29;20060;-65
2023/07/21 06:36:47;;;;;;;8.68;6.32;;;;;;;29.88;100.00;97887.28;4811404;29;20045;-65
2023/07/21 06:39:34;;;;;;;8.40;5.85;;;;;;;29.95;100.00;97880.47;4808236;29;22001;-66
2023/07/21 06:42:23;;;;;;;7.82;6.03;;;;;;;29.99;100.00;97863.09;4831501;29;20163;-64
2023/07/21 06:45:03;;;;;;;8.52;6.20;;;;;;;30.08;100.00;97865.72;4839387;29;21252;-66
2023/07/21 06:47:52;;;;;;;8.68;6.25;;;;;;;30.04;100.00;97875.72;4822117;29;20061;-64
2023/07/21 06:50:40;;;;;;;12.95;7.05;;;;;;;29.99;100.00;97884.94;4838585;29;20074;-64
2023/07/21 06:53:11;;;;;;;11.95;6.80;;;;;;;30.07;100.00;97869.56;4839634;29;20050;-65
2023/07/21 06:55:40;;;;;;;11.75;7.93;;;;;;;30.06;100.00;97868.75;4828303;29;20145;-65
2023/07/21 06:58:10;;;;;;;12.90;8.05;;;;;;;30.16;100.00;97870.25;4823383;29;20144;-66
2023/07/21 07:00:40;;;;;;;15.30;8.30;;;;;;;30.23;100.00;97868.53;4822682;29;20058;-66
2023/07/21 07:03:10;;;;;;;10.05;8.02;;;;;;;30.30;100.00;97863.34;4819678;29;20755;-65
2023/07/21 07:05:45;;;;;;;15.13;8.35;;;;;;;30.25;100.00;97851.81;4836761;29;20060;-65
2023/07/21 07:08:15;;;;;;;11.55;7.95;;;;;;;30.17;100.00;97842.63;4806674;29;20377;-64
2023/07/21 07:10:48;;;;;;;12.68;9.02;;;;;;;30.20;100.00;97839.19;4840049;29;20781;-65
2023/07/21 07:13:19;;;;;;;17.02;10.35;;;;;;;30.25;100.00;97835.44;4838988;29;20064;-65
2023/07/21 07:15:53;;;;;;;15.32;10.52;;;;;;;30.31;100.00;97836.81;4839550;29;20042;-65
2023/07/21 07:18:24;;;;;;;10.63;9.52;;;;;;;30.31;100.00;97826.69;4837151;29;20081;-67
2023/07/21 07:20:56;;;;;;;13.13;10.63;;;;;;;30.25;100.00;97829.97;4825429;29;20042;-64
2023/07/21 07:23:28;;;;;;;14.30;10.48;;;;;;;30.21;100.00;97824.41;4839236;29;20064;-64
2023/07/21 07:25:57;;;;;;;14.65;12.45;;;;;;;30.19;100.00;97810.25;4839913;29;20480;-63
2023/07/21 07:28:33;;;;;;;16.35;13.85;;;;;;;30.36;100.00;97805.72;4836066;29;20049;-65
2023/07/21 07:31:06;;;;;;;20.30;15.82;;;;;;;30.26;100.00;97810.50;4839176;29;20058;-65
2023/07/21 07:33:36;;;;;;;23.13;17.05;;;;;;;30.15;100.00;97812.09;4837468;29;20419;-66
2023/07/21 07:36:05;;;;;;;23.27;19.42;;;;;;;30.20;100.00;97802.88;4841503;29;20058;-67
2023/07/21 07:38:35;;;;;;;26.42;18.15;;;;;;;30.31;100.00;97791.16;4838714;29;20045;-63
2023/07/21 07:41:09;;;;;;;26.15;18.77;;;;;;;30.33;100.00;97790.78;4835785;29;20061;-65
2023/07/21 07:43:42;;;;;;;24.70;20.73;;;;;;;30.44;100.00;97791.13;4836134;29;20045;-63
2023/07/21 07:46:14;;;;;;;31.10;24.25;;;;;;;30.42;100.00;97793.41;4826207;29;20507;-64
2023/07/21 07:48:49;;;;;;;31.40;25.02;;;;;;;30.50;100.00;97787.03;4841169;29;20050;-64
2023/07/21 07:51:22;;;;;;;36.08;29.15;;;;;;;30.35;100.00;97796.72;4840324;29;20050;-64
2023/07/21 07:53:52;;;;;;;38.85;29.52;;;;;;;30.38;100.00;97792.50;4841926;29;20041;-65
2023/07/21 07:56:21;;;;;;;29.48;22.85;;;;;;;30.40;100.00;97780.09;4837193;29;20471;-65
2023/07/21 07:58:51;;;;;;;29.48;23.90;;;;;;;30.31;100.00;97788.44;4837677;29;20045;-66
2023/07/21 08:01:20;;;;;;;30.08;24.65;;;;;;;30.21;100.00;97796.28;4841454;29;20045;-66
2023/07/21 08:03:52;;;;;;;26.08;20.85;;;;;;;30.33;100.00;97793.53;4839999;29;20132;-62
2023/07/21 08:06:22;;;;;;;;;;;;;;;30.41;100.00;97784.41;4837557;29;20644;-63
2023/07/21 08:08:51;;;;;;;25.70;19.05;;;;;;;30.60;100.00;97783.84;4842913;29;19938;-63
2023/07/21 08:11:21;;;;;;;19.70;16.10;;;;;;;30.54;100.00;97775.06;4827155;29;20073;-65
2023/07/21 08:13:51;;;;;;;18.92;15.05;;;;;;;30.63;100.00;97772.19;4840223;29;20096;-65
2023/07/21 08:16:20;;;;;;;17.38;14.63;;;;;;;30.72;100.00;97762.72;4841348;29;20077;-66
2023/07/21 08:18:49;;;;;;;22.05;15.32;;;;;;;30.90;100.00;97768.69;4839852;29;20037;-64
2023/07/21 08:21:20;;;;;;;19.42;15.77;;;;;;;30.68;100.00;97774.69;4837692;29;20053;-63
2023/07/21 08:23:54;;;;;;;19.73;14.07;;;;;;;30.78;100.00;97768.75;4834798;29;20068;-65
2023/07/21 08:26:24;;;;;;;16.33;13.60;;;;;;;30.81;100.00;97778.97;4824220;29;20068;-65
2023/07/21 08:28:55;;;;;;;15.50;11.85;;;;;;;30.72;100.00;97783.78;4837039;29;20120;-65
2023/07/21 08:31:24;;;;;;;12.35;11.02;;;;;;;30.62;100.00;97767.91;4821491;29;20061;-65
2023/07/21 08:33:54;;;;;;;12.95;11.35;;;;;;;30.55;100.00;97764.94;4830653;29;20057;-64
2023/07/21 08:36:24;;;;;;;10.30;9.27;;;;;;;30.32;100.00;97762.66;4839309;29;20102;-65
2023/07/21 08:39:11;;;;;;;11.20;7.57;;;;;;;30.44;100.00;97761.06;4842017;29;20057;-65
2023/07/21 08:41:47;;;;;;;7.65;6.40;;;;;;;30.38;98.89;97759.72;4839719;29;20049;-65
2023/07/21 08:44:17;;;;;;;9.18;5.72;;;;;;;30.59;100.00;97752.97;4840082;29;20357;-64
2023/07/21 08:46:47;;;;;;;6.13;5.53;;;;;;;30.51;97.07;97758.56;4839656;29;20045;-65
2023/07/21 08:49:18;;;;;;;6.28;5.68;;;;;;;30.56;98.97;97753.66;4839244;29;20054;-64
2023/07/21 08:51:48;;;;;;;6.65;6.00;;;;;;;30.51;98.28;97758.56;4843884;29;20162;-64
2023/07/21 08:54:18;;;;;;;6.28;5.68;;;;;;;30.52;98.20;97754.69;4845134;29;20049;-66
2023/07/21 08:56:47;;;;;;;9.40;6.50;;;;;;;30.53;98.76;97750.84;4824956;29;20053;-65
2023/07/21 08:59:18;;;;;;;8.55;7.28;;;;;;;30.44;99.21;97737.28;4828139;29;20852;-65
2023/07/21 09:01:49;;;;;;;10.63;9.50;;;;;;;30.63;99.95;97729.25;4841808;29;20077;-65
2023/07/21 09:04:23;;;;;;;13.27;10.73;;;;;;;30.68;100.00;97731.75;4844901;29;20099;-65
2023/07/21 09:06:54;;;;;;;17.73;11.35;;;;;;;30.69;99.59;97721.59;4832925;29;20065;-65
2023/07/21 09:09:26;;;;;;;14.00;12.50;;;;;;;30.77;100.00;97712.47;4842551;29;20100;-64
2023/07/21 09:12:11;;;;;;;16.40;13.98;;;;;;;30.86;100.00;97712.31;4825849;29;20141;-65
2023/07/21 09:14:45;;;;;;;15.40;13.23;;;;;;;30.92;100.00;97724.59;4833944;29;20046;-65
2023/07/21 09:17:15;;;;;;;14.02;12.48;;;;;;;30.90;100.00;97727.66;4820580;29;20051;-64
2023/07/21 09:19:45;;;;;;;13.75;12.32;;;;;;;30.91;100.00;97720.25;4824284;29;20406;-65
2023/07/21 09:22:14;;;;;;;12.02;10.90;;;;;;;30.87;100.00;97722.91;4827252;29;20058;-65
2023/07/21 09:24:51;;;;;;;11.95;10.52;;;;;;;30.87;100.00;97711.16;4826292;29;20565;-65
2023/07/21 09:27:21;;;;;;;10.98;9.90;;;;;;;30.84;100.00;97706.41;4822473;29;22057;-65
2023/07/21 09:30:00;;;;;;;9.55;8.65;;;;;;;30.84;100.00;97701.75;4825222;29;20482;-64
2023/07/21 09:32:41;;;;;;;10.60;9.50;;;;;;;30.83;100.00;97696.59;4823840;29;20091;-65
2023/07/21 09:35:10;;;;;;;8.35;7.55;;;;;;;30.78;100.00;97692.19;4822544;29;20042;-65
2023/07/21 09:37:41;;;;;;;9.45;6.75;;;;;;;30.68;100.00;97689.94;4825494;29;20090;-65
2023/07/21 09:40:10;;;;;;;9.40;7.45;;;;;;;30.67;100.00;97682.91;4822464;29;20058;-65
2023/07/21 09:42:42;;;;;;;9.77;7.75;;;;;;;30.62;100.00;97677.69;4823866;29;20146;-65
2023/07/21 09:45:12;;;;;;;9.70;8.00;;;;;;;30.62;100.00;97669.47;4822663;29;20060;-64
2023/07/21 09:47:43;;;;;;;9.73;8.05;;;;;;;30.59;100.00;97668.22;4819222;29;20060;-65
2023/07/21 09:50:13;;;;;;;8.00;7.25;;;;;;;30.57;100.00;97664.25;4823280;29;20053;-63
2023/07/21 09:52:47;;;;;;;9.57;8.15;;;;;;;30.59;100.00;97661.97;4828709;29;20115;-63
2023/07/21 09:55:18;;;;;;;12.23;8.52;;;;;;;30.67;100.00;97655.56;4819658;29;20050;-64
2023/07/21 09:57:49;;;;;;;12.25;9.02;;;;;;;30.62;100.00;97658.53;4821736;29;20629;-64
2023/07/21 10:00:20;;;;;;;8.43;7.57;;;;;;;30.51;100.00;97662.91;4820780;29;20045;-64
2023/07/21 10:02:50;;;;;;;9.80;7.25;;;;;;;30.56;100.00;97666.19;4816101;29;20065;-63
2023/07/21 10:05:20;;;;;;;8.50;7.57;;;;;;;30.63;100.00;97657.38;4794932;29;20050;-65
2023/07/21 10:07:51;;;;;;;10.00;7.93;;;;;;;30.62;100.00;97644.88;4835206;29;20149;-64
2023/07/21 10:10:22;;;;;;;10.20;8.57;;;;;;;30.55;100.00;97637.25;4816475;29;20054;-64
2023/07/21 10:12:54;;;;;;;11.60;8.50;;;;;;;30.60;99.72;97647.94;4820682;29;20053;-64
2023/07/21 10:15:31;;;;;;;8.07;6.77;;;;;;;30.51;96.65;97649.25;4820345;29;20058;-64
2023/07/21 10:18:06;;;;;;;9.98;6.78;;;;;;;30.59;96.80;97649.09;4821455;29;20203;-63
2023/07/21 10:20:45;;;;;;;7.53;6.38;;;;;;;30.43;96.17;97648.22;4821825;29;20055;-64
2023/07/21 10:23:23;;;;;;;10.45;7.95;;;;;;;30.44;97.02;97638.91;4821514;29;20487;-64
2023/07/21 10:25:52;;;;;;;9.00;8.10;;;;;;;30.36;99.01;97630.84;4487694;29;10001722;-64
2023/07/21 10:28:24;;;;;;;11.43;9.00;;;;;;;30.40;100.00;97631.75;4823537;29;20066;-65
2023/07/21 10:30:53;;;;;;;11.90;9.68;;;;;;;30.43;100.00;97634.56;4820798;29;20047;-63
2023/07/21 10:33:29;;;;;;;10.18;8.95;;;;;;;30.47;100.00;97637.41;4819412;29;20153;-66
2023/07/21 10:36:14;;;;;;;11.52;8.90;;;;;;;30.47;100.00;97643.69;4815766;29;20138;-65
2023/07/21 10:38:44;;;;;;;9.85;8.95;;;;;;;30.47;100.00;97637.41;4818858;29;20050;-64
2023/07/21 10:41:13;;;;;;;10.60;9.48;;;;;;;30.46;100.00;97625.69;4817534;29;20080;-66
2023/07/21 10:43:43;;;;;;;12.85;9.23;;;;;;;30.55;100.00;97626.34;4820133;29;20445;-64
2023/07/21 10:46:12;;;;;;;10.48;9.23;;;;;;;30.59;100.00;97620.97;4801559;29;20078;-65
2023/07/21 10:48:42;;;;;;;13.75;9.95;;;;;;;30.52;100.00;97612.56;4819294;29;20057;-66
2023/07/21 10:51:12;;;;;;;10.57;9.48;;;;;;;30.55;100.00;97603.66;4817024;29;20054;-65
2023/07/21 10:53:41;;;;;;;13.30;12.00;;;;;;;30.39;100.00;97606.34;4827411;29;20046;-65
2023/07/21 10:56:11;;;;;;;15.15;13.45;;;;;;;30.41;100.00;97606.78;4816996;29;20058;-66
2023/07/21 10:58:40;;;;;;;13.20;11.55;;;;;;;30.55;100.00;97601.72;4816220;29;20061;-65
2023/07/21 11:01:09;;;;;;;15.05;11.18;;;;;;;30.65;100.00;97597.69;4814228;29;20470;-68
2023/07/21 11:03:43;;;;;;;14.05;12.38;;;;;;;30.78;100.00;97591.00;4832191;29;20061;-67
2023/07/21 11:06:13;;;;;;;20.98;14.23;;;;;;;30.74;100.00;97592.88;4821811;29;20494;-66
2023/07/21 11:08:46;;;;;;;15.45;13.00;;;;;;;30.80;100.00;97588.75;4824837;29;20064;-66
2023/07/21 11:11:16;;;;;;;17.45;13.38;;;;;;;30.82;100.00;97586.44;4816572;29;20550;-67
2023/07/21 11:13:46;;;;;;;15.55;12.73;;;;;;;30.89;100.00;97592.06;4836432;29;20054;-67
2023/07/21 11:16:16;;;;;;;19.45;14.82;;;;;;;30.76;99.30;97585.88;4839772;29;20132;-68
2023/07/21 11:18:47;;;;;;;19.67;15.35;;;;;;;30.62;100.00;97585.53;4837238;29;20144;-65
2023/07/21 11:21:17;;;;;;;22.67;16.40;;;;;;;30.68;99.96;97586.84;4835575;29;20056;-65
2023/07/21 11:23:46;;;;;;;19.83;17.35;;;;;;;30.76;100.00;97588.63;4835859;29;20743;-67
2023/07/21 11:26:15;;;;;;;21.15;17.80;;;;;;;30.75;100.00;97580.78;4829599;29;20509;-67
2023/07/21 11:28:47;;;;;;;24.05;20.67;;;;;;;30.70;100.00;97575.56;4835299;29;20042;-66
2023/07/21 11:31:18;;;;;;;29.27;23.35;;;;;;;30.63;100.00;97564.44;4841387;29;20058;-66
2023/07/21 11:33:49;;;;;;;31.67;22.75;;;;;;;30.67;100.00;97571.59;4822767;29;20053;-67
2023/07/21 11:36:22;;;;;;;31.13;24.90;;;;;;;30.64;100.00;97572.31;4819452;29;20137;-67
2023/07/21 11:38:58;;;;;;;30.73;23.30;;;;;;;30.64;100.00;97568.78;4840457;29;20453;-67